Gulf — V2BB5 — position and weather

sailwx.info

Track history (hours):
 
Tides and Currents Weather Stations Pressure Air Temp Water Temp Dewpoint Dewpoint Depression Visibility Wind Speed Wind Dir Waves Ship Positions

Gulf

Last reported at 2014-Oct-25 07:29 UTC. Time now 2014-Nov-01 05:25 UTC.
Position N 37°55' E 023°01'.

Length 96 m; draft 5.3 m.

Type: Cargo ship. MMSI: 304320000.

Date/timePositionNaut miles runAvg speedWind from/ knotsBaromVisibWave heightAir tempDewpointWater temp
2014-Oct-25 07:29N 37°55' E 023°01'5 2.2
2014-Oct-25 05:21N 37°54' E 023°07'8 7.9
2014-Oct-25 04:20N 37°53' E 023°17'6 8.0
2014-Oct-25 03:33N 37°52' E 023°25'7 7.0
2014-Oct-25 02:33N 37°51' E 023°33'7 6.5
2014-Oct-25 01:33N 37°48' E 023°41'8 7.6
2014-Oct-25 00:31N 37°41' E 023°45'20 6.0
2014-Oct-24 21:08N 37°39' E 024°11'296 6.6
2014-Oct-23 00:22N 40°58' E 028°54'0 0.1
2014-Oct-22 21:23N 40°58' E 028°54'0 0.0
2014-Oct-22 20:29N 40°58' E 028°54'0 0.0
2014-Oct-22 19:05N 40°58' E 028°54'0 0.0
2014-Oct-22 18:05N 40°58' E 028°54'0 0.0
2014-Oct-22 17:23N 40°58' E 028°54'0 0.0
2014-Oct-22 14:04N 40°58' E 028°54'0 0.0
2014-Oct-22 13:33N 40°58' E 028°54'0 0.0
2014-Oct-22 12:33N 40°58' E 028°54'0 0.0
2014-Oct-22 11:31N 40°58' E 028°54'0 0.0
2014-Oct-22 10:33N 40°58' E 028°54'0 0.0
2014-Oct-22 09:32N 40°58' E 028°54'0 0.0
2014-Oct-22 08:20N 40°58' E 028°54'0 0.0
2014-Oct-22 07:33N 40°58' E 028°54'0 0.0
2014-Oct-22 05:32N 40°58' E 028°54'0 0.0
2014-Oct-22 04:03N 40°58' E 028°54'0 0.0
2014-Oct-22 03:33N 40°58' E 028°54'0 0.0
2014-Oct-22 02:32N 40°58' E 028°54'0 0.0
2014-Oct-22 01:31N 40°58' E 028°54'0 0.1
2014-Oct-22 00:33N 40°58' E 028°54'0 0.0
2014-Oct-21 23:33N 40°58' E 028°54'0 0.0
2014-Oct-21 22:33N 40°58' E 028°54'0 0.0
2014-Oct-21 21:33N 40°58' E 028°54'0 0.0
2014-Oct-21 20:33N 40°58' E 028°54'0 0.0
2014-Oct-21 19:32N 40°58' E 028°54'0 0.0
2014-Oct-21 18:33N 40°58' E 028°54'0 0.0
2014-Oct-21 17:33N 40°58' E 028°54'0 0.0
2014-Oct-21 16:33N 40°58' E 028°54'0 0.0
2014-Oct-21 15:33N 40°58' E 028°54'0 0.0
2014-Oct-21 14:33N 40°58' E 028°54'0 0.1
2014-Oct-21 13:31N 40°58' E 028°54'0 0.0
2014-Oct-21 12:22N 40°58' E 028°54'0 0.0
2014-Oct-21 11:31N 40°58' E 028°54'0 0.0
2014-Oct-21 10:22N 40°58' E 028°54'0 0.1
2014-Oct-21 09:19N 40°58' E 028°54'0 0.0
2014-Oct-21 08:33N 40°58' E 028°54'4 3.4
2014-Oct-21 07:29N 40°59' E 028°59'  
2014-Oct-18 17:15N 44°21' E 034°08'7 9.5
2014-Oct-18 16:33N 44°23' E 034°17'9 9.1
2014-Oct-18 15:33N 44°25' E 034°29'9 9.0
2014-Oct-18 14:33N 44°28' E 034°41'9 8.8
2014-Oct-18 13:33N 44°30' E 034°53'  
Track history (hours):
 
Tides and Currents Weather Stations Pressure Air Temp Water Temp Dewpoint Dewpoint Depression Visibility Wind Speed Wind Dir Waves Ship Positions

Gulf

Last reported at 2014-Oct-25 07:29 UTC. Time now 2014-Nov-01 05:25 UTC.
Position N 37°55' E 023°01'.

Length 96 m; draft 5.3 m.

Type: Cargo ship. MMSI: 304320000.

Date/timePositionNaut miles runAvg speedWind from/ knotsBaromVisibWave heightAir tempDewpointWater temp
2014-Oct-25 07:29N 37°55' E 023°01'5 2.2
2014-Oct-25 05:21N 37°54' E 023°07'8 7.9
2014-Oct-25 04:20N 37°53' E 023°17'6 8.0
2014-Oct-25 03:33N 37°52' E 023°25'7 7.0
2014-Oct-25 02:33N 37°51' E 023°33'7 6.5
2014-Oct-25 01:33N 37°48' E 023°41'8 7.6
2014-Oct-25 00:31N 37°41' E 023°45'20 6.0
2014-Oct-24 21:08N 37°39' E 024°11'296 6.6
2014-Oct-23 00:22N 40°58' E 028°54'0 0.1
2014-Oct-22 21:23N 40°58' E 028°54'0 0.0
2014-Oct-22 20:29N 40°58' E 028°54'0 0.0
2014-Oct-22 19:05N 40°58' E 028°54'0 0.0
2014-Oct-22 18:05N 40°58' E 028°54'0 0.0
2014-Oct-22 17:23N 40°58' E 028°54'0 0.0
2014-Oct-22 14:04N 40°58' E 028°54'0 0.0
2014-Oct-22 13:33N 40°58' E 028°54'0 0.0
2014-Oct-22 12:33N 40°58' E 028°54'0 0.0
2014-Oct-22 11:31N 40°58' E 028°54'0 0.0
2014-Oct-22 10:33N 40°58' E 028°54'0 0.0
2014-Oct-22 09:32N 40°58' E 028°54'0 0.0
2014-Oct-22 08:20N 40°58' E 028°54'0 0.0
2014-Oct-22 07:33N 40°58' E 028°54'0 0.0
2014-Oct-22 05:32N 40°58' E 028°54'0 0.0
2014-Oct-22 04:03N 40°58' E 028°54'0 0.0
2014-Oct-22 03:33N 40°58' E 028°54'0 0.0
2014-Oct-22 02:32N 40°58' E 028°54'0 0.0
2014-Oct-22 01:31N 40°58' E 028°54'0 0.1
2014-Oct-22 00:33N 40°58' E 028°54'0 0.0
2014-Oct-21 23:33N 40°58' E 028°54'0 0.0
2014-Oct-21 22:33N 40°58' E 028°54'0 0.0
2014-Oct-21 21:33N 40°58' E 028°54'0 0.0
2014-Oct-21 20:33N 40°58' E 028°54'0 0.0
2014-Oct-21 19:32N 40°58' E 028°54'0 0.0
2014-Oct-21 18:33N 40°58' E 028°54'0 0.0
2014-Oct-21 17:33N 40°58' E 028°54'0 0.0
2014-Oct-21 16:33N 40°58' E 028°54'0 0.0
2014-Oct-21 15:33N 40°58' E 028°54'0 0.0
2014-Oct-21 14:33N 40°58' E 028°54'0 0.1
2014-Oct-21 13:31N 40°58' E 028°54'0 0.0
2014-Oct-21 12:22N 40°58' E 028°54'0 0.0
2014-Oct-21 11:31N 40°58' E 028°54'0 0.0
2014-Oct-21 10:22N 40°58' E 028°54'0 0.1
2014-Oct-21 09:19N 40°58' E 028°54'0 0.0
2014-Oct-21 08:33N 40°58' E 028°54'4 3.4
2014-Oct-21 07:29N 40°59' E 028°59'  
2014-Oct-18 17:15N 44°21' E 034°08'7 9.5
2014-Oct-18 16:33N 44°23' E 034°17'9 9.1
2014-Oct-18 15:33N 44°25' E 034°29'9 9.0
2014-Oct-18 14:33N 44°28' E 034°41'9 8.8
2014-Oct-18 13:33N 44°30' E 034°53'  

Dump ship's entire track history